Terminal Aerodrome Forecast
Issued by NWS

Current Version | Previous Version | Text Only | Print | Product List | Glossary On
Versions: 1 2 3 4 5 6 7 8 9 10 11 12 13 14 15 16 17 18 19 20 21 22 23 24 25 26 27 28 29 30 31 32 33 34
412
FTUS41 KOKX 281734
TAFGON
TAF
KGON 281734Z 2818/2918 05017G23KT P6SM OVC025
     FM282000 05019G26KT P6SM -DZ OVC015
     FM290900 04017G25KT P6SM -DZ SCT007 OVC010
      TEMPO 2909/2913 BKN007=

USA.gov is the U.S. government's official web portal to all federal, state and local government web resources and services.